sensor_id;sensor_type;location;lat;lon;timestamp;pressure;altitude;pressure_sealevel;temperature;humidity
35918;BME280;22011;59.912;30.300;2023-09-30T00:02:14;101098.56;;;18.38;77.08
35918;BME280;22011;59.912;30.300;2023-09-30T00:04:42;101094.22;;;18.37;77.01
35918;BME280;22011;59.912;30.300;2023-09-30T00:07:10;101093.59;;;18.35;77.12
35918;BME280;22011;59.912;30.300;2023-09-30T00:09:39;101092.34;;;18.38;77.38
35918;BME280;22011;59.912;30.300;2023-09-30T00:12:06;101091.31;;;18.39;77.04
35918;BME280;22011;59.912;30.300;2023-09-30T00:14:34;101082.59;;;18.37;77.11
35918;BME280;22011;59.912;30.300;2023-09-30T00:17:04;101088.41;;;18.40;77.12
35918;BME280;22011;59.912;30.300;2023-09-30T00:19:31;101084.25;;;18.38;76.99
35918;BME280;22011;59.912;30.300;2023-09-30T00:21:59;101081.75;;;18.36;76.97
35918;BME280;22011;59.912;30.300;2023-09-30T00:24:27;101080.31;;;18.34;77.31
35918;BME280;22011;59.912;30.300;2023-09-30T00:26:56;101082.16;;;18.33;77.58
35918;BME280;22011;59.912;30.300;2023-09-30T00:29:24;101078.03;;;18.30;77.40
35918;BME280;22011;59.912;30.300;2023-09-30T00:31:52;101075.53;;;18.29;77.47
35918;BME280;22011;59.912;30.300;2023-09-30T00:34:20;101073.88;;;18.28;77.71
35918;BME280;22011;59.912;30.300;2023-09-30T00:36:48;101071.19;;;18.28;77.47
35918;BME280;22011;59.912;30.300;2023-09-30T00:39:15;101063.28;;;18.26;77.62
35918;BME280;22011;59.912;30.300;2023-09-30T00:41:43;101063.28;;;18.26;77.60
35918;BME280;22011;59.912;30.300;2023-09-30T00:44:12;101055.00;;;18.28;77.83
35918;BME280;22011;59.912;30.300;2023-09-30T00:46:40;101050.63;;;18.27;77.67
35918;BME280;22011;59.912;30.300;2023-09-30T00:49:09;101045.44;;;18.25;77.47
35918;BME280;22011;59.912;30.300;2023-09-30T00:51:37;101047.72;;;18.22;77.76
35918;BME280;22011;59.912;30.300;2023-09-30T00:54:06;101048.78;;;18.21;77.92
35918;BME280;22011;59.912;30.300;2023-09-30T00:56:39;101050.63;;;18.27;78.42
35918;BME280;22011;59.912;30.300;2023-09-30T00:59:12;101042.34;;;18.22;78.33
35918;BME280;22011;59.912;30.300;2023-09-30T01:01:40;101045.25;;;18.20;78.22
35918;BME280;22011;59.912;30.300;2023-09-30T01:04:09;101042.34;;;18.22;78.30
35918;BME280;22011;59.912;30.300;2023-09-30T01:06:38;101030.94;;;18.20;78.26
35918;BME280;22011;59.912;30.300;2023-09-30T01:09:05;101025.53;;;18.20;78.29
35918;BME280;22011;59.912;30.300;2023-09-30T01:11:33;101022.00;;;18.19;78.08
35918;BME280;22011;59.912;30.300;2023-09-30T01:14:01;101018.28;;;18.20;78.40
35918;BME280;22011;59.912;30.300;2023-09-30T01:16:30;101011.00;;;18.21;78.34
35918;BME280;22011;59.912;30.300;2023-09-30T01:18:57;101002.72;;;18.16;78.48
35918;BME280;22011;59.912;30.300;2023-09-30T01:21:25;101000.22;;;18.14;78.33
35918;BME280;22011;59.912;30.300;2023-09-30T01:23:55;101002.72;;;18.16;78.72
35918;BME280;22011;59.912;30.300;2023-09-30T01:26:22;100996.28;;;18.10;78.75
35918;BME280;22011;59.912;30.300;2023-09-30T01:28:50;100990.69;;;18.12;78.88
35918;BME280;22011;59.912;30.300;2023-09-30T01:31:18;100992.97;;;18.08;79.31
35918;BME280;22011;59.912;30.300;2023-09-30T01:33:45;100981.78;;;18.05;79.20
35918;BME280;22011;59.912;30.300;2023-09-30T01:36:13;100980.94;;;18.04;79.29
35918;BME280;22011;59.912;30.300;2023-09-30T01:38:40;100976.81;;;18.02;79.47
35918;BME280;22011;59.912;30.300;2023-09-30T01:41:10;100974.72;;;18.04;79.60
35918;BME280;22011;59.912;30.300;2023-09-30T01:43:37;100976.19;;;18.00;79.50
35918;BME280;22011;59.912;30.300;2023-09-30T01:46:05;100978.06;;;17.99;79.51
35918;BME280;22011;59.912;30.300;2023-09-30T01:48:33;100965.19;;;17.94;79.74
35918;BME280;22011;59.912;30.300;2023-09-30T01:51:01;100966.66;;;17.90;79.79
35918;BME280;22011;59.912;30.300;2023-09-30T01:53:28;100964.16;;;17.89;79.88
35918;BME280;22011;59.912;30.300;2023-09-30T01:55:56;100954.22;;;17.89;79.92
35918;BME280;22011;59.912;30.300;2023-09-30T01:58:25;100956.91;;;17.89;80.33
35918;BME280;22011;59.912;30.300;2023-09-30T02:01:00;100941.16;;;17.86;80.08
35918;BME280;22011;59.912;30.300;2023-09-30T02:03:28;100946.53;;;17.86;80.34
35918;BME280;22011;59.912;30.300;2023-09-30T02:05:57;100951.94;;;17.86;80.62
35918;BME280;22011;59.912;30.300;2023-09-30T02:08:24;100936.59;;;17.87;80.13
35918;BME280;22011;59.912;30.300;2023-09-30T02:10:52;100942.81;;;17.87;80.29
35918;BME280;22011;59.912;30.300;2023-09-30T02:13:20;100940.72;;;17.89;80.40
35918;BME280;22011;59.912;30.300;2023-09-30T02:15:48;100935.97;;;17.91;80.42
35918;BME280;22011;59.912;30.300;2023-09-30T02:18:17;100928.91;;;17.90;80.47
35918;BME280;22011;59.912;30.300;2023-09-30T02:20:45;100934.94;;;17.92;80.29
35918;BME280;22011;59.912;30.300;2023-09-30T02:23:12;100938.03;;;17.89;80.56
35918;BME280;22011;59.912;30.300;2023-09-30T02:25:42;100933.06;;;17.93;80.38
35918;BME280;22011;59.912;30.300;2023-09-30T02:28:10;100929.13;;;17.95;80.01
35918;BME280;22011;59.912;30.300;2023-09-30T02:30:38;100917.28;;;17.96;80.13
35918;BME280;22011;59.912;30.300;2023-09-30T02:33:07;100923.31;;;17.98;80.01
35918;BME280;22011;59.912;30.300;2023-09-30T02:35:35;100925.16;;;17.98;79.89
35918;BME280;22011;59.912;30.300;2023-09-30T02:38:04;100906.31;;;17.98;79.81
35918;BME280;22011;59.912;30.300;2023-09-30T02:40:35;100904.44;;;17.98;79.80
35918;BME280;22011;59.912;30.300;2023-09-30T02:43:03;100897.59;;;17.96;79.62
35918;BME280;22011;59.912;30.300;2023-09-30T02:45:30;100899.47;;;17.95;79.42
35918;BME280;22011;59.912;30.300;2023-09-30T02:47:58;100905.88;;;17.94;79.78
35918;BME280;22011;59.912;30.300;2023-09-30T02:50:28;100904.63;;;17.97;79.66
35918;BME280;22011;59.912;30.300;2023-09-30T02:52:55;100906.09;;;17.93;79.32
35918;BME280;22011;59.912;30.300;2023-09-30T02:55:25;100900.09;;;17.91;79.57
35918;BME280;22011;59.912;30.300;2023-09-30T02:57:52;100903.00;;;17.89;79.51
35918;BME280;22011;59.912;30.300;2023-09-30T03:00:21;100899.25;;;17.90;79.79
35918;BME280;22011;59.912;30.300;2023-09-30T03:02:51;100892.22;;;17.89;79.49
35918;BME280;22011;59.912;30.300;2023-09-30T03:05:19;100896.16;;;17.87;79.76
35918;BME280;22011;59.912;30.300;2023-09-30T03:07:49;100886.81;;;17.89;80.13
35918;BME280;22011;59.912;30.300;2023-09-30T03:10:18;100889.31;;;17.84;79.84
35918;BME280;22011;59.912;30.300;2023-09-30T03:12:46;100887.66;;;17.83;80.12
35918;BME280;22011;59.912;30.300;2023-09-30T03:15:14;100878.13;;;17.81;80.20
35918;BME280;22011;59.912;30.300;2023-09-30T03:17:42;100877.28;;;17.80;80.40
35918;BME280;22011;59.912;30.300;2023-09-30T03:20:11;100883.50;;;17.81;80.89
35918;BME280;22011;59.912;30.300;2023-09-30T03:22:41;100874.81;;;17.79;81.17
35918;BME280;22011;59.912;30.300;2023-09-30T03:25:11;100882.06;;;17.78;81.57
35918;BME280;22011;59.912;30.300;2023-09-30T03:27:38;100874.41;;;17.75;81.67
35918;BME280;22011;59.912;30.300;2023-09-30T03:30:08;100863.00;;;17.73;81.66
35918;BME280;22011;59.912;30.300;2023-09-30T03:32:39;100854.91;;;17.73;81.93
35918;BME280;22011;59.912;30.300;2023-09-30T03:35:07;100847.66;;;17.74;82.31
35918;BME280;22011;59.912;30.300;2023-09-30T03:37:37;100847.88;;;17.72;81.28
35918;BME280;22011;59.912;30.300;2023-09-30T03:40:06;100857.63;;;17.73;81.96
35918;BME280;22011;59.912;30.300;2023-09-30T03:42:41;100853.06;;;17.74;82.79
35918;BME280;22011;59.912;30.300;2023-09-30T03:45:10;100844.78;;;17.69;82.59
35918;BME280;22011;59.912;30.300;2023-09-30T03:47:40;100843.94;;;17.68;81.86
35918;BME280;22011;59.912;30.300;2023-09-30T03:50:08;100839.38;;;17.69;81.28
35918;BME280;22011;59.912;30.300;2023-09-30T03:52:41;100826.72;;;17.69;81.32
35918;BME280;22011;59.912;30.300;2023-09-30T03:55:10;100828.59;;;17.69;81.25
35918;BME280;22011;59.912;30.300;2023-09-30T03:57:38;100832.13;;;17.69;82.00
35918;BME280;22011;59.912;30.300;2023-09-30T04:00:08;100839.38;;;17.69;82.70
35918;BME280;22011;59.912;30.300;2023-09-30T04:02:42;100829.88;;;17.66;83.11
35918;BME280;22011;59.912;30.300;2023-09-30T04:05:13;100825.72;;;17.63;83.55
35918;BME280;22011;59.912;30.300;2023-09-30T04:07:41;100834.22;;;17.60;83.43
35918;BME280;22011;59.912;30.300;2023-09-30T04:10:09;100828.41;;;17.57;82.78
35918;BME280;22011;59.912;30.300;2023-09-30T04:12:37;100811.81;;;17.60;83.78
35918;BME280;22011;59.912;30.300;2023-09-30T04:15:07;100817.84;;;17.49;84.09
35918;BME280;22011;59.912;30.300;2023-09-30T04:17:38;100810.59;;;17.43;84.08
35918;BME280;22011;59.912;30.300;2023-09-30T04:20:07;100814.31;;;17.55;83.96
35918;BME280;22011;59.912;30.300;2023-09-30T04:22:37;100810.16;;;17.59;83.80
35918;BME280;22011;59.912;30.300;2023-09-30T04:25:06;100812.66;;;17.60;83.72
35918;BME280;22011;59.912;30.300;2023-09-30T04:27:37;100806.44;;;17.60;82.98
35918;BME280;22011;59.912;30.300;2023-09-30T04:30:07;100797.09;;;17.62;83.48
35918;BME280;22011;59.912;30.300;2023-09-30T04:32:37;100804.16;;;17.63;83.21
35918;BME280;22011;59.912;30.300;2023-09-30T04:35:06;100800.25;;;17.66;82.83
35918;BME280;22011;59.912;30.300;2023-09-30T04:37:34;100794.84;;;17.66;82.04
35918;BME280;22011;59.912;30.300;2023-09-30T04:40:03;100794.41;;;17.69;81.63
35918;BME280;22011;59.912;30.300;2023-09-30T04:42:33;100795.84;;;17.72;82.22
35918;BME280;22011;59.912;30.300;2023-09-30T04:45:03;100793.97;;;17.72;82.37
35918;BME280;22011;59.912;30.300;2023-09-30T04:47:34;100795.00;;;17.71;82.72
35918;BME280;22011;59.912;30.300;2023-09-30T04:50:01;100787.13;;;17.70;83.07
35918;BME280;22011;59.912;30.300;2023-09-30T04:52:31;100785.72;;;17.67;82.37
35918;BME280;22011;59.912;30.300;2023-09-30T04:54:58;100789.47;;;17.66;82.60
35918;BME280;22011;59.912;30.300;2023-09-30T04:57:26;100778.03;;;17.64;82.69
35918;BME280;22011;59.912;30.300;2023-09-30T04:59:54;100776.16;;;17.64;82.80
35918;BME280;22011;59.912;30.300;2023-09-30T05:02:22;100766.22;;;17.65;81.94
35918;BME280;22011;59.912;30.300;2023-09-30T05:04:51;100764.56;;;17.71;81.92
35918;BME280;22011;59.912;30.300;2023-09-30T05:07:19;100772.63;;;17.71;81.50
35918;BME280;22011;59.912;30.300;2023-09-30T05:09:47;100778.22;;;17.69;82.41
35918;BME280;22011;59.912;30.300;2023-09-30T05:12:15;100776.56;;;17.68;82.53
35918;BME280;22011;59.912;30.300;2023-09-30T05:14:43;100781.16;;;17.68;82.61
35918;BME280;22011;59.912;30.300;2023-09-30T05:17:11;100776.38;;;17.70;82.67
35918;BME280;22011;59.912;30.300;2023-09-30T05:19:39;100760.41;;;17.68;82.71
35918;BME280;22011;59.912;30.300;2023-09-30T05:22:08;100756.09;;;17.67;82.83
35918;BME280;22011;59.912;30.300;2023-09-30T05:24:36;100757.53;;;17.63;82.76
35918;BME280;22011;59.912;30.300;2023-09-30T05:27:03;100756.91;;;17.61;82.31
35918;BME280;22011;59.912;30.300;2023-09-30T05:29:31;100752.97;;;17.63;83.01
35918;BME280;22011;59.912;30.300;2023-09-30T05:31:59;100756.28;;;17.59;82.89
35918;BME280;22011;59.912;30.300;2023-09-30T05:34:27;100751.09;;;17.57;83.34
35918;BME280;22011;59.912;30.300;2023-09-30T05:36:54;100755.06;;;17.55;82.84
35918;BME280;22011;59.912;30.300;2023-09-30T05:39:23;100761.88;;;17.57;83.19
35918;BME280;22011;59.912;30.300;2023-09-30T05:41:51;100755.88;;;17.55;83.27
35918;BME280;22011;59.912;30.300;2023-09-30T05:44:19;100750.91;;;17.52;83.16
35918;BME280;22011;59.912;30.300;2023-09-30T05:46:48;100749.25;;;17.51;83.44
35918;BME280;22011;59.912;30.300;2023-09-30T05:49:17;100738.47;;;17.51;83.28
35918;BME280;22011;59.912;30.300;2023-09-30T05:51:45;100738.47;;;17.51;83.11
35918;BME280;22011;59.912;30.300;2023-09-30T05:54:13;100739.31;;;17.52;83.00
35918;BME280;22011;59.912;30.300;2023-09-30T05:56:42;100737.22;;;17.54;82.82
35918;BME280;22011;59.912;30.300;2023-09-30T05:59:10;100733.94;;;17.52;82.48
35918;BME280;22011;59.912;30.300;2023-09-30T06:01:37;100733.09;;;17.51;82.42
35918;BME280;22011;59.912;30.300;2023-09-30T06:04:05;100726.66;;;17.52;82.41
35918;BME280;22011;59.912;30.300;2023-09-30T06:06:33;100726.66;;;17.52;82.45
35918;BME280;22011;59.912;30.300;2023-09-30T06:09:01;100712.78;;;17.55;82.39
35918;BME280;22011;59.912;30.300;2023-09-30T06:11:28;100714.00;;;17.59;82.13
35918;BME280;22011;59.912;30.300;2023-09-30T06:13:58;100718.81;;;17.51;82.07
35918;BME280;22011;59.912;30.300;2023-09-30T06:16:27;100716.53;;;17.48;82.65
35918;BME280;22011;59.912;30.300;2023-09-30T06:18:57;100702.44;;;17.46;83.11
35918;BME280;22011;59.912;30.300;2023-09-30T06:21:25;100703.88;;;17.55;81.22
35918;BME280;22011;59.912;30.300;2023-09-30T06:23:55;100690.78;;;17.65;80.69
35918;BME280;22011;59.912;30.300;2023-09-30T06:26:23;100689.56;;;17.68;81.49
35918;BME280;22011;59.912;30.300;2023-09-30T06:28:55;100686.03;;;17.67;80.98
35918;BME280;22011;59.912;30.300;2023-09-30T06:31:24;100688.28;;;17.70;81.03
35918;BME280;22011;59.912;30.300;2023-09-30T06:33:53;100678.78;;;17.68;80.74
35918;BME280;22011;59.912;30.300;2023-09-30T06:36:24;100669.22;;;17.65;80.92
35918;BME280;22011;59.912;30.300;2023-09-30T06:38:51;100672.97;;;17.64;79.98
35918;BME280;22011;59.912;30.300;2023-09-30T06:41:19;100661.78;;;17.67;79.13
35918;BME280;22011;59.912;30.300;2023-09-30T06:43:47;100669.19;;;17.72;80.23
35918;BME280;22011;59.912;30.300;2023-09-30T06:46:15;100659.47;;;17.71;80.05
35918;BME280;22011;59.912;30.300;2023-09-30T06:48:44;100660.28;;;17.71;80.39
35918;BME280;22011;59.912;30.300;2023-09-30T06:51:15;100654.47;;;17.74;80.40
35918;BME280;22011;59.912;30.300;2023-09-30T06:53:43;100656.41;;;17.67;80.08
35918;BME280;22011;59.912;30.300;2023-09-30T06:56:11;100639.41;;;17.67;80.02
35918;BME280;22011;59.912;30.300;2023-09-30T06:58:40;100636.25;;;17.70;80.49
35918;BME280;22011;59.912;30.300;2023-09-30T07:01:07;100636.03;;;17.71;79.95
35918;BME280;22011;59.912;30.300;2023-09-30T07:03:35;100626.69;;;17.74;79.60
35918;BME280;22011;59.912;30.300;2023-09-30T07:06:04;100623.13;;;17.80;80.01
35918;BME280;22011;59.912;30.300;2023-09-30T07:08:32;100626.06;;;17.78;79.95
35918;BME280;22011;59.912;30.300;2023-09-30T07:11:00;100624.56;;;17.82;79.48
35918;BME280;22011;59.912;30.300;2023-09-30T07:13:28;100622.28;;;17.86;79.43
35918;BME280;22011;59.912;30.300;2023-09-30T07:15:55;100621.44;;;17.85;79.55
35918;BME280;22011;59.912;30.300;2023-09-30T07:18:23;100618.97;;;17.84;79.45
35918;BME280;22011;59.912;30.300;2023-09-30T07:20:51;100618.97;;;17.84;79.55
35918;BME280;22011;59.912;30.300;2023-09-30T07:23:20;100618.16;;;17.83;79.56
35918;BME280;22011;59.912;30.300;2023-09-30T07:25:48;100616.50;;;17.82;79.60
35918;BME280;22011;59.912;30.300;2023-09-30T07:28:16;100618.16;;;17.83;79.15
35918;BME280;22011;59.912;30.300;2023-09-30T07:30:44;100626.84;;;17.85;79.07
35918;BME280;22011;59.912;30.300;2023-09-30T07:33:12;100613.16;;;17.87;78.61
35918;BME280;22011;59.912;30.300;2023-09-30T07:35:39;100612.06;;;17.94;78.42
35918;BME280;22011;59.912;30.300;2023-09-30T07:38:07;100612.03;;;18.01;77.44
35918;BME280;22011;59.912;30.300;2023-09-30T07:40:35;100610.50;;;18.12;78.43
35918;BME280;22011;59.912;30.300;2023-09-30T07:43:03;100597.41;;;18.15;76.53
35918;BME280;22011;59.912;30.300;2023-09-30T07:45:31;100596.53;;;18.21;75.56
35918;BME280;22011;59.912;30.300;2023-09-30T07:47:58;100591.09;;;18.28;75.34
35918;BME280;22011;59.912;30.300;2023-09-30T07:50:29;100586.47;;;18.35;74.72
35918;BME280;22011;59.912;30.300;2023-09-30T07:52:56;100577.28;;;18.43;74.86
35918;BME280;22011;59.912;30.300;2023-09-30T07:55:26;100573.69;;;18.49;75.23
35918;BME280;22011;59.912;30.300;2023-09-30T07:57:56;100570.50;;;18.58;75.35
35918;BME280;22011;59.912;30.300;2023-09-30T08:00:25;100568.22;;;18.62;75.04
35918;BME280;22011;59.912;30.300;2023-09-30T08:02:53;100563.09;;;18.72;74.60
35918;BME280;22011;59.912;30.300;2023-09-30T08:05:21;100561.53;;;18.83;74.21
35918;BME280;22011;59.912;30.300;2023-09-30T08:07:48;100556.44;;;18.93;73.51
35918;BME280;22011;59.912;30.300;2023-09-30T08:10:16;100559.81;;;19.07;72.90
35918;BME280;22011;59.912;30.300;2023-09-30T08:12:43;100553.06;;;19.16;73.18
35918;BME280;22011;59.912;30.300;2023-09-30T08:15:15;100551.91;;;19.23;72.28
35918;BME280;22011;59.912;30.300;2023-09-30T08:17:43;100551.91;;;19.23;72.54
35918;BME280;22011;59.912;30.300;2023-09-30T08:20:11;100541.47;;;19.27;72.19
35918;BME280;22011;59.912;30.300;2023-09-30T08:22:40;100545.84;;;19.28;72.16
35918;BME280;22011;59.912;30.300;2023-09-30T08:25:08;100549.28;;;19.35;71.62
35918;BME280;22011;59.912;30.300;2023-09-30T08:27:36;100537.56;;;19.41;71.96
35918;BME280;22011;59.912;30.300;2023-09-30T08:30:06;100543.94;;;19.47;71.51
35918;BME280;22011;59.912;30.300;2023-09-30T08:32:35;100530.59;;;19.52;72.08
35918;BME280;22011;59.912;30.300;2023-09-30T08:35:03;100529.66;;;19.58;71.54
35918;BME280;22011;59.912;30.300;2023-09-30T08:37:31;100513.72;;;19.68;71.48
35918;BME280;22011;59.912;30.300;2023-09-30T08:39:59;100512.56;;;19.87;69.86
35918;BME280;22011;59.912;30.300;2023-09-30T08:42:27;100511.41;;;20.07;69.63
35918;BME280;22011;59.912;30.300;2023-09-30T08:44:58;100511.31;;;20.25;69.42
35918;BME280;22011;59.912;30.300;2023-09-30T08:47:26;100500.28;;;20.38;68.37
35918;BME280;22011;59.912;30.300;2023-09-30T08:49:56;100508.41;;;20.50;68.74
35918;BME280;22011;59.912;30.300;2023-09-30T08:52:32;100503.34;;;20.53;68.38
35918;BME280;22011;59.912;30.300;2023-09-30T08:55:00;100509.56;;;20.66;68.10
35918;BME280;22011;59.912;30.300;2023-09-30T08:57:28;100503.56;;;20.75;67.62
35918;BME280;22011;59.912;30.300;2023-09-30T08:59:59;100492.56;;;20.82;67.33
35918;BME280;22011;59.912;30.300;2023-09-30T09:02:27;100493.84;;;20.91;67.17
35918;BME280;22011;59.912;30.300;2023-09-30T09:04:58;100491.81;;;20.98;66.14
35918;BME280;22011;59.912;30.300;2023-09-30T09:07:26;100494.91;;;20.90;66.52
35918;BME280;22011;59.912;30.300;2023-09-30T09:10:03;100495.59;;;20.97;68.48
35918;BME280;22011;59.912;30.300;2023-09-30T09:12:33;100487.91;;;20.77;67.73
35918;BME280;22011;59.912;30.300;2023-09-30T09:15:01;100480.72;;;20.71;67.53
35918;BME280;22011;59.912;30.300;2023-09-30T09:17:42;100476.19;;;20.88;68.91
35918;BME280;22011;59.912;30.300;2023-09-30T09:20:16;100473.72;;;20.87;68.21
35918;BME280;22011;59.912;30.300;2023-09-30T09:22:47;100468.13;;;20.77;67.53
35918;BME280;22011;59.912;30.300;2023-09-30T09:25:17;100468.13;;;20.77;67.97
35918;BME280;22011;59.912;30.300;2023-09-30T09:27:45;100467.06;;;20.78;67.83
35918;BME280;22011;59.912;30.300;2023-09-30T09:30:17;100465.25;;;20.83;68.02
35918;BME280;22011;59.912;30.300;2023-09-30T09:32:58;100458.28;;;20.87;68.43
35918;BME280;22011;59.912;30.300;2023-09-30T09:35:28;100467.44;;;20.70;68.19
35918;BME280;22011;59.912;30.300;2023-09-30T09:37:57;100466.72;;;20.63;69.00
35918;BME280;22011;59.912;30.300;2023-09-30T09:40:26;100475.09;;;20.61;68.62
35918;BME280;22011;59.912;30.300;2023-09-30T09:42:54;100471.94;;;20.52;68.73
35918;BME280;22011;59.912;30.300;2023-09-30T09:45:25;100475.47;;;20.41;69.15
35918;BME280;22011;59.912;30.300;2023-09-30T09:47:54;100463.09;;;20.34;69.71
35918;BME280;22011;59.912;30.300;2023-09-30T09:50:22;100466.97;;;20.26;69.83
35918;BME280;22011;59.912;30.300;2023-09-30T09:52:53;100469.31;;;20.22;70.35
35918;BME280;22011;59.912;30.300;2023-09-30T09:55:22;100461.56;;;20.14;70.83
35918;BME280;22011;59.912;30.300;2023-09-30T09:57:51;100454.97;;;20.22;70.38
35918;BME280;22011;59.912;30.300;2023-09-30T10:00:20;100462.38;;;20.27;70.07
35918;BME280;22011;59.912;30.300;2023-09-30T10:02:48;100460.50;;;20.27;69.78
35918;BME280;22011;59.912;30.300;2023-09-30T10:05:18;100459.44;;;20.28;69.04
35918;BME280;22011;59.912;30.300;2023-09-30T10:07:50;100465.44;;;20.30;69.46
35918;BME280;22011;59.912;30.300;2023-09-30T10:10:20;100456.84;;;20.33;69.85
35918;BME280;22011;59.912;30.300;2023-09-30T10:12:49;100452.84;;;20.36;69.12
35918;BME280;22011;59.912;30.300;2023-09-30T10:15:38;100451.78;;;20.60;69.54
35918;BME280;22011;59.912;30.300;2023-09-30T10:18:07;100446.75;;;20.40;68.23
35918;BME280;22011;59.912;30.300;2023-09-30T10:20:37;100444.66;;;20.42;68.83
35918;BME280;22011;59.912;30.300;2023-09-30T10:23:21;100454.75;;;20.59;69.05
35918;BME280;22011;59.912;30.300;2023-09-30T10:25:53;100445.22;;;20.44;68.40
35918;BME280;22011;59.912;30.300;2023-09-30T10:28:37;100446.47;;;20.65;68.76
35918;BME280;22011;59.912;30.300;2023-09-30T10:31:09;100448.25;;;20.60;67.88
35918;BME280;22011;59.912;30.300;2023-09-30T10:36:39;100442.53;;;20.44;67.44
35918;BME280;22011;59.912;30.300;2023-09-30T10:39:11;100449.81;;;20.44;68.39
35918;BME280;22011;59.912;30.300;2023-09-30T10:41:51;100446.97;;;20.50;68.67
35918;BME280;22011;59.912;30.300;2023-09-30T10:44:35;100448.38;;;20.53;69.50
35918;BME280;22011;59.912;30.300;2023-09-30T10:47:34;100448.63;;;20.51;69.55
35918;BME280;22011;59.912;30.300;2023-09-30T10:50:02;100435.91;;;20.29;68.68
35918;BME280;22011;59.912;30.300;2023-09-30T10:52:30;100438.03;;;20.27;68.06
35918;BME280;22011;59.912;30.300;2023-09-30T10:55:02;100448.38;;;20.30;68.92
35918;BME280;22011;59.912;30.300;2023-09-30T10:57:33;100445.09;;;20.16;68.65
35918;BME280;22011;59.912;30.300;2023-09-30T11:00:08;100446.03;;;20.21;68.67
35918;BME280;22011;59.912;30.300;2023-09-30T11:02:48;100440.63;;;20.10;69.55
35918;BME280;22011;59.912;30.300;2023-09-30T11:05:17;100447.19;;;20.37;68.61
35918;BME280;22011;59.912;30.300;2023-09-30T11:07:48;100438.97;;;20.09;67.85
35918;BME280;22011;59.912;30.300;2023-09-30T11:10:17;100442.63;;;20.03;68.08
35918;BME280;22011;59.912;30.300;2023-09-30T11:12:55;100442.16;;;20.17;69.41
35918;BME280;22011;59.912;30.300;2023-09-30T11:15:23;100444.28;;;20.04;68.48
35918;BME280;22011;59.912;30.300;2023-09-30T11:17:52;100448.28;;;20.01;68.96
35918;BME280;22011;59.912;30.300;2023-09-30T11:20:19;100439.34;;;20.01;68.60
35918;BME280;22011;59.912;30.300;2023-09-30T11:22:48;100431.56;;;20.04;68.04
35918;BME280;22011;59.912;30.300;2023-09-30T11:25:16;100436.50;;;20.07;68.14
35918;BME280;22011;59.912;30.300;2023-09-30T11:27:45;100434.63;;;20.08;68.27
35918;BME280;22011;59.912;30.300;2023-09-30T11:30:15;100433.09;;;20.12;68.63
35918;BME280;22011;59.912;30.300;2023-09-30T11:32:43;100432.28;;;20.11;68.61
35918;BME280;22011;59.912;30.300;2023-09-30T11:35:22;100438.63;;;20.29;69.43
35918;BME280;22011;59.912;30.300;2023-09-30T11:37:51;100442.41;;;20.16;68.06
35918;BME280;22011;59.912;30.300;2023-09-30T11:40:19;100440.28;;;20.18;68.04
35918;BME280;22011;59.912;30.300;2023-09-30T11:43:07;100444.28;;;20.39;68.80
35918;BME280;22011;59.912;30.300;2023-09-30T11:45:38;100440.28;;;20.18;67.68
35918;BME280;22011;59.912;30.300;2023-09-30T11:48:17;100437.81;;;20.28;68.91
35918;BME280;22011;59.912;30.300;2023-09-30T11:50:47;100441.56;;;20.15;67.90
35918;BME280;22011;59.912;30.300;2023-09-30T11:53:16;100431.34;;;20.17;67.89
35918;BME280;22011;59.912;30.300;2023-09-30T11:55:46;100425.47;;;20.20;67.39
35918;BME280;22011;59.912;30.300;2023-09-30T11:58:14;100429.09;;;20.26;67.48
35918;BME280;22011;59.912;30.300;2023-09-30T12:00:46;100431.91;;;20.31;67.77
35918;BME280;22011;59.912;30.300;2023-09-30T12:03:16;100428.16;;;20.32;67.14
35918;BME280;22011;59.912;30.300;2023-09-30T12:05:44;100428.75;;;20.34;67.50
35918;BME280;22011;59.912;30.300;2023-09-30T12:08:12;100418.38;;;20.31;67.10
35918;BME280;22011;59.912;30.300;2023-09-30T12:10:40;100428.97;;;20.33;67.26
35918;BME280;22011;59.912;30.300;2023-09-30T12:13:08;100420.16;;;20.37;67.52
35918;BME280;22011;59.912;30.300;2023-09-30T12:15:38;100419.22;;;20.43;66.16
35918;BME280;22011;59.912;30.300;2023-09-30T12:18:07;100426.28;;;20.44;66.73
35918;BME280;22011;59.912;30.300;2023-09-30T12:20:35;100425.94;;;20.41;66.30
35918;BME280;22011;59.912;30.300;2023-09-30T12:23:04;100427.22;;;20.38;66.80
35918;BME280;22011;59.912;30.300;2023-09-30T12:25:32;100427.69;;;20.35;66.30
35918;BME280;22011;59.912;30.300;2023-09-30T12:27:59;100420.63;;;20.34;66.33
35918;BME280;22011;59.912;30.300;2023-09-30T12:30:27;100428.88;;;20.28;67.64
35918;BME280;22011;59.912;30.300;2023-09-30T12:32:58;100430.88;;;20.20;68.61
35918;BME280;22011;59.912;30.300;2023-09-30T12:35:27;100441.44;;;20.22;69.28
35918;BME280;22011;59.912;30.300;2023-09-30T12:37:54;100429.22;;;20.19;69.62
35918;BME280;22011;59.912;30.300;2023-09-30T12:40:23;100430.41;;;20.12;70.01
35918;BME280;22011;59.912;30.300;2023-09-30T12:42:50;100435.47;;;20.08;69.77
35918;BME280;22011;59.912;30.300;2023-09-30T12:45:18;100432.75;;;20.08;69.89
35918;BME280;22011;59.912;30.300;2023-09-30T12:47:47;100436.63;;;20.01;70.08
35918;BME280;22011;59.912;30.300;2023-09-30T12:50:20;100450.72;;;19.91;70.26
35918;BME280;22011;59.912;30.300;2023-09-30T12:52:49;100452.63;;;19.90;70.02
35918;BME280;22011;59.912;30.300;2023-09-30T12:55:17;100452.03;;;19.88;69.58